createdAt,value
2023-06-15T00:01:06.856Z,3.67
2023-06-15T00:03:34.619Z,3.20
2023-06-15T00:06:02.567Z,3.53
2023-06-15T00:08:30.209Z,3.30
2023-06-15T00:10:57.840Z,3.10
2023-06-15T00:13:25.575Z,3.13
2023-06-15T00:15:53.196Z,3.67
2023-06-15T00:18:20.954Z,3.47
2023-06-15T00:20:49.056Z,3.30
2023-06-15T00:23:18.298Z,3.80
2023-06-15T00:25:45.967Z,3.30
2023-06-15T00:28:13.561Z,3.75
2023-06-15T00:30:41.219Z,3.25
2023-06-15T00:33:08.950Z,3.58
2023-06-15T00:35:37.074Z,3.28
2023-06-15T00:38:04.758Z,3.38
2023-06-15T00:40:32.374Z,3.33
2023-06-15T00:43:00.149Z,3.30
2023-06-15T00:45:27.740Z,3.85
2023-06-15T00:47:55.841Z,3.25
2023-06-15T00:50:23.781Z,3.15
2023-06-15T00:52:57.367Z,3.55
2023-06-15T00:55:25.607Z,3.40
2023-06-15T00:57:53.823Z,3.53
2023-06-15T01:00:21.595Z,3.55
2023-06-15T01:02:57.397Z,3.00
2023-06-15T01:05:25.713Z,4.00
2023-06-15T01:07:54.029Z,3.38
2023-06-15T01:10:24.160Z,3.72
2023-06-15T01:12:55.153Z,3.65
2023-06-15T01:15:24.827Z,3.50
2023-06-15T01:17:56.045Z,3.38
2023-06-15T01:20:27.756Z,3.67
2023-06-15T01:23:08.790Z,4.05
2023-06-15T01:25:39.474Z,3.83
2023-06-15T01:28:07.651Z,3.72
2023-06-15T01:30:39.328Z,3.70
2023-06-15T01:33:08.064Z,3.47
2023-06-15T01:35:35.762Z,4.05
2023-06-15T01:38:03.500Z,3.75
2023-06-15T01:40:32.802Z,3.90
2023-06-15T01:43:01.091Z,3.58
2023-06-15T01:45:29.929Z,3.75
2023-06-15T01:47:57.885Z,3.40
2023-06-15T01:50:27.451Z,3.75
2023-06-15T01:52:55.689Z,3.80
2023-06-15T01:55:23.757Z,3.60
2023-06-15T01:57:54.050Z,3.60
2023-06-15T02:00:23.498Z,3.75
2023-06-15T02:02:51.940Z,4.25
2023-06-15T02:05:20.187Z,3.58
2023-06-15T02:07:50.112Z,3.55
2023-06-15T02:10:19.742Z,3.92
2023-06-15T02:12:47.384Z,3.78
2023-06-15T02:15:20.025Z,3.92
2023-06-15T02:17:48.057Z,3.22
2023-06-15T02:20:17.299Z,3.65
2023-06-15T02:22:45.812Z,3.53
2023-06-15T02:25:14.670Z,3.65
2023-06-15T02:27:42.451Z,3.72
2023-06-15T02:30:10.362Z,3.92
2023-06-15T02:32:39.087Z,3.42
2023-06-15T02:35:10.438Z,4.10
2023-06-15T02:37:38.680Z,3.88
2023-06-15T02:40:10.115Z,4.10
2023-06-15T02:42:38.038Z,3.53
2023-06-15T02:45:07.802Z,3.42
2023-06-15T02:47:36.735Z,3.92
2023-06-15T02:50:09.136Z,4.00
2023-06-15T02:52:46.233Z,3.72
2023-06-15T02:55:15.481Z,4.32
2023-06-15T02:57:44.876Z,4.18
2023-06-15T03:00:28.629Z,4.00
2023-06-15T03:03:03.881Z,3.95
2023-06-15T03:05:38.105Z,3.83
2023-06-15T03:08:06.408Z,3.67
2023-06-15T03:10:57.068Z,3.70
2023-06-15T03:13:25.703Z,4.15
2023-06-15T03:15:54.199Z,3.67
2023-06-15T03:18:21.872Z,4.05
2023-06-15T03:20:53.975Z,3.95
2023-06-15T03:23:22.330Z,4.20
2023-06-15T03:25:52.991Z,3.90
2023-06-15T03:28:25.576Z,3.92
2023-06-15T03:30:54.596Z,4.22
2023-06-15T03:33:23.436Z,3.95
2023-06-15T03:35:54.257Z,4.80
2023-06-15T03:38:22.089Z,3.72
2023-06-15T03:40:51.525Z,3.78
2023-06-15T03:43:20.463Z,4.20
2023-06-15T03:45:48.564Z,4.15
2023-06-15T03:48:16.315Z,4.35
2023-06-15T03:50:44.374Z,4.05
2023-06-15T03:53:14.500Z,4.07
2023-06-15T03:55:42.426Z,4.10
2023-06-15T03:58:10.778Z,5.05
2023-06-15T04:00:38.372Z,3.83
2023-06-15T04:03:06.399Z,3.63
2023-06-15T04:05:34.358Z,4.32
2023-06-15T04:08:02.541Z,4.18
2023-06-15T04:10:31.387Z,3.85
2023-06-15T04:12:59.289Z,4.00
2023-06-15T04:15:26.979Z,3.60
2023-06-15T04:17:54.803Z,4.10
2023-06-15T04:20:22.849Z,3.83
2023-06-15T04:22:52.298Z,4.07
2023-06-15T04:25:20.553Z,4.22
2023-06-15T04:27:48.916Z,3.97
2023-06-15T04:30:25.695Z,4.05
2023-06-15T04:32:58.530Z,4.65
2023-06-15T04:35:29.909Z,4.18
2023-06-15T04:37:59.309Z,4.30
2023-06-15T04:40:27.392Z,3.90
2023-06-15T04:42:55.012Z,4.10
2023-06-15T04:45:22.687Z,3.95
2023-06-15T04:47:50.441Z,3.95
2023-06-15T04:50:18.250Z,4.22
2023-06-15T04:52:46.390Z,4.03
2023-06-15T04:55:14.117Z,4.32
2023-06-15T04:57:42.447Z,4.30
2023-06-15T05:00:11.487Z,3.90
2023-06-15T05:02:45.995Z,4.40
2023-06-15T05:05:16.828Z,4.13
2023-06-15T05:07:45.471Z,4.20
2023-06-15T05:10:13.307Z,4.60
2023-06-15T05:12:41.763Z,5.97
2023-06-15T05:15:10.575Z,4.35
2023-06-15T05:17:38.344Z,3.80
2023-06-15T05:20:07.972Z,4.38
2023-06-15T05:22:36.666Z,4.18
2023-06-15T05:25:04.589Z,4.18
2023-06-15T05:27:36.253Z,3.97
2023-06-15T05:30:04.375Z,4.43
2023-06-15T05:32:36.174Z,4.32
2023-06-15T05:37:32.072Z,4.40
2023-06-15T05:39:59.945Z,4.38
2023-06-15T05:42:27.918Z,4.50
2023-06-15T05:44:56.188Z,4.78
2023-06-15T05:47:24.210Z,4.65
2023-06-15T05:49:52.049Z,4.60
2023-06-15T05:52:20.288Z,4.43
2023-06-15T05:54:48.012Z,5.10
2023-06-15T05:57:16.043Z,4.45
2023-06-15T05:59:47.951Z,4.35
2023-06-15T06:02:15.987Z,4.65
2023-06-15T06:04:43.855Z,4.53
2023-06-15T06:07:11.945Z,4.65
2023-06-15T06:09:39.819Z,5.57
2023-06-15T06:12:09.535Z,4.90
2023-06-15T06:14:37.249Z,4.82
2023-06-15T06:17:05.755Z,4.25
2023-06-15T06:19:33.330Z,4.30
2023-06-15T06:22:01.340Z,4.43
2023-06-15T06:24:30.818Z,4.50
2023-06-15T06:27:01.933Z,4.65
2023-06-15T06:29:30.685Z,4.50
2023-06-15T06:31:58.293Z,4.80
2023-06-15T06:34:25.924Z,4.50
2023-06-15T06:36:53.544Z,4.57
2023-06-15T06:39:21.224Z,4.28
2023-06-15T06:41:49.293Z,5.18
2023-06-15T06:44:18.095Z,4.60
2023-06-15T06:46:49.108Z,4.30
2023-06-15T06:49:16.968Z,5.30
2023-06-15T06:51:44.591Z,4.38
2023-06-15T06:54:12.210Z,4.28
2023-06-15T06:56:40.032Z,4.40
2023-06-15T06:59:07.680Z,4.75
2023-06-15T07:01:35.603Z,4.68
2023-06-15T07:04:03.345Z,4.97
2023-06-15T07:06:31.192Z,4.40
2023-06-15T07:08:58.898Z,4.63
2023-06-15T07:11:27.402Z,4.90
2023-06-15T07:13:55.619Z,4.57
2023-06-15T07:16:23.560Z,4.50
2023-06-15T07:18:51.325Z,4.40
2023-06-15T07:21:18.989Z,4.72
2023-06-15T07:23:53.477Z,4.18
2023-06-15T07:26:22.097Z,4.60
2023-06-15T07:28:50.034Z,5.18
2023-06-15T07:31:17.968Z,4.85
2023-06-15T07:33:45.753Z,4.50
2023-06-15T07:36:13.405Z,4.55
2023-06-15T07:38:42.279Z,4.40
2023-06-15T07:41:09.975Z,4.82
2023-06-15T07:43:37.682Z,4.55
2023-06-15T07:46:05.449Z,3.97
2023-06-15T07:48:33.202Z,4.15
2023-06-15T07:51:01.097Z,4.63
2023-06-15T07:53:28.739Z,4.68
2023-06-15T07:55:56.377Z,4.85
2023-06-15T07:58:24.132Z,4.70
2023-06-15T08:00:51.778Z,4.40
2023-06-15T08:03:19.810Z,4.30
2023-06-15T08:05:47.534Z,4.30
2023-06-15T08:08:15.182Z,3.90
2023-06-15T08:10:42.980Z,4.15
2023-06-15T08:13:11.743Z,4.32
2023-06-15T08:15:39.347Z,4.68
2023-06-15T08:18:07.054Z,3.75
2023-06-15T08:20:34.873Z,3.67
2023-06-15T08:23:02.480Z,3.80
2023-06-15T08:25:30.454Z,3.97
2023-06-15T08:27:58.078Z,4.18
2023-06-15T08:30:25.683Z,3.63
2023-06-15T08:32:53.526Z,3.55
2023-06-15T08:35:21.359Z,3.58
2023-06-15T08:37:49.225Z,3.45
2023-06-15T08:40:17.284Z,4.07
2023-06-15T08:42:44.990Z,3.17
2023-06-15T08:45:13.261Z,3.60
2023-06-15T08:47:41.371Z,3.50
2023-06-15T08:50:09.189Z,3.50
2023-06-15T08:52:37.870Z,3.67
2023-06-15T08:55:05.981Z,3.60
2023-06-15T08:57:34.613Z,3.97
2023-06-15T09:00:02.256Z,3.50
2023-06-15T09:02:31.369Z,3.55
2023-06-15T09:04:58.983Z,3.17
2023-06-15T09:07:26.645Z,3.33
2023-06-15T09:10:13.196Z,2.85
2023-06-15T09:12:47.568Z,3.35
2023-06-15T09:15:21.301Z,3.30
2023-06-15T09:20:18.830Z,4.22
2023-06-15T09:22:47.085Z,3.15
2023-06-15T09:25:17.425Z,3.70
2023-06-15T09:27:55.197Z,4.03
2023-06-15T09:30:23.554Z,3.67
2023-06-15T09:32:51.447Z,3.38
2023-06-15T09:35:19.255Z,3.60
2023-06-15T09:37:46.908Z,3.08
2023-06-15T09:40:14.666Z,3.05
2023-06-15T09:42:42.645Z,2.70
2023-06-15T09:45:10.577Z,3.03
2023-06-15T09:47:38.638Z,3.30
2023-06-15T09:50:09.661Z,2.70
2023-06-15T09:52:38.097Z,2.83
2023-06-15T09:55:06.286Z,2.85
2023-06-15T09:57:34.223Z,3.28
2023-06-15T10:00:08.744Z,2.78
2023-06-15T10:02:40.398Z,2.72
2023-06-15T10:05:14.312Z,2.83
2023-06-15T10:07:49.176Z,2.55
2023-06-15T10:10:19.127Z,3.03
2023-06-15T10:12:50.858Z,3.03
2023-06-15T10:15:21.245Z,2.83
2023-06-15T10:17:49.972Z,3.03
2023-06-15T10:20:19.568Z,3.70
2023-06-15T10:23:05.085Z,3.42
2023-06-15T10:25:32.766Z,3.90
2023-06-15T10:28:05.049Z,3.88
2023-06-15T10:30:56.465Z,3.42
2023-06-15T10:33:42.506Z,3.40
2023-06-15T10:36:25.701Z,3.60
2023-06-15T10:39:04.810Z,3.08
2023-06-15T10:41:32.532Z,3.42
2023-06-15T10:44:00.838Z,3.20
2023-06-15T10:46:32.435Z,3.83
2023-06-15T10:49:04.171Z,3.72
2023-06-15T10:51:34.253Z,3.30
2023-06-15T10:54:04.236Z,3.40
2023-06-15T10:56:32.021Z,3.90
2023-06-15T10:59:01.027Z,3.35
2023-06-15T11:01:34.687Z,3.58
2023-06-15T11:04:03.269Z,3.25
2023-06-15T11:06:31.897Z,2.83
2023-06-15T11:09:03.623Z,3.50
2023-06-15T11:11:31.167Z,3.63
2023-06-15T11:14:06.096Z,3.42
2023-06-15T11:16:40.202Z,3.92
2023-06-15T11:19:14.154Z,3.33
2023-06-15T11:21:43.086Z,3.30
2023-06-15T11:24:14.868Z,2.97
2023-06-15T11:26:42.900Z,3.00
2023-06-15T11:29:14.149Z,3.45
2023-06-15T11:31:42.941Z,3.47
2023-06-15T11:34:11.525Z,3.40
2023-06-15T11:36:39.549Z,2.97
2023-06-15T11:39:07.238Z,3.05
2023-06-15T11:41:35.024Z,2.92
2023-06-15T11:44:02.945Z,3.05
2023-06-15T11:46:30.577Z,3.58
2023-06-15T11:48:58.875Z,3.20
2023-06-15T11:51:26.742Z,3.00
2023-06-15T11:53:54.730Z,3.45
2023-06-15T11:56:23.112Z,3.70
2023-06-15T11:58:51.353Z,2.88
2023-06-15T12:01:19.632Z,3.28
2023-06-15T12:04:03.414Z,3.40
2023-06-15T12:06:33.670Z,2.90
2023-06-15T12:09:02.133Z,3.35
2023-06-15T12:11:29.801Z,3.60
2023-06-15T12:14:03.177Z,3.22
2023-06-15T12:16:31.738Z,3.42
2023-06-15T12:18:59.955Z,3.08
2023-06-15T12:21:31.835Z,3.25
2023-06-15T12:26:34.100Z,3.10
2023-06-15T12:29:03.838Z,3.03
2023-06-15T12:31:34.909Z,2.90
2023-06-15T12:34:11.656Z,2.85
2023-06-15T12:36:40.171Z,3.17
2023-06-15T12:39:10.122Z,3.08
2023-06-15T12:41:42.802Z,3.15
2023-06-15T12:44:11.411Z,2.60
2023-06-15T12:46:41.114Z,3.40
2023-06-15T12:49:09.305Z,3.30
2023-06-15T12:51:37.473Z,2.95
2023-06-15T12:54:05.443Z,2.90
2023-06-15T12:56:35.400Z,2.65
2023-06-15T12:59:03.399Z,2.60
2023-06-15T13:01:32.121Z,2.67
2023-06-15T13:03:59.996Z,2.70
2023-06-15T13:06:28.134Z,2.53
2023-06-15T13:08:56.570Z,2.65
2023-06-15T13:11:24.164Z,2.10
2023-06-15T13:13:52.015Z,2.42
2023-06-15T13:16:19.668Z,2.90
2023-06-15T13:18:47.326Z,3.33
2023-06-15T13:21:15.293Z,2.85
2023-06-15T13:23:43.564Z,2.70
2023-06-15T13:26:11.213Z,3.00
2023-06-15T13:28:38.835Z,2.83
2023-06-15T13:31:06.417Z,2.75
2023-06-15T13:33:34.054Z,2.55
2023-06-15T13:36:01.832Z,2.58
2023-06-15T13:38:29.445Z,2.38
2023-06-15T13:40:57.157Z,2.60
2023-06-15T13:43:24.837Z,2.53
2023-06-15T13:45:52.528Z,2.40
2023-06-15T13:48:20.153Z,2.75
2023-06-15T13:50:47.741Z,2.83
2023-06-15T13:53:15.373Z,2.90
2023-06-15T13:55:43.632Z,2.97
2023-06-15T13:58:11.326Z,2.95
2023-06-15T14:00:39.656Z,2.80
2023-06-15T14:03:08.264Z,3.08
2023-06-15T14:05:35.916Z,2.92
2023-06-15T14:08:03.598Z,2.80
2023-06-15T14:10:31.335Z,2.70
2023-06-15T14:12:59.093Z,2.70
2023-06-15T14:15:26.728Z,2.70
2023-06-15T14:17:54.347Z,2.72
2023-06-15T14:20:22.506Z,2.33
2023-06-15T14:22:50.186Z,3.08
2023-06-15T14:25:18.647Z,3.05
2023-06-15T14:27:48.499Z,2.53
2023-06-15T14:30:17.264Z,2.83
2023-06-15T14:32:45.727Z,3.03
2023-06-15T14:35:13.439Z,2.70
2023-06-15T14:37:41.121Z,3.40
2023-06-15T14:40:08.966Z,2.63
2023-06-15T14:42:48.077Z,3.33
2023-06-15T14:45:16.137Z,3.10
2023-06-15T14:47:44.427Z,3.00
2023-06-15T14:50:12.110Z,2.95
2023-06-15T14:52:40.719Z,2.92
2023-06-15T14:55:09.433Z,3.08
2023-06-15T14:57:37.090Z,3.08
2023-06-15T15:00:08.284Z,2.95
2023-06-15T15:02:36.366Z,3.22
2023-06-15T15:05:04.664Z,3.25
2023-06-15T15:07:32.286Z,3.03
2023-06-15T15:10:02.113Z,3.00
2023-06-15T15:12:30.261Z,3.50
2023-06-15T15:14:58.212Z,3.55
2023-06-15T15:17:26.655Z,2.90
2023-06-15T15:19:54.914Z,3.55
2023-06-15T15:22:22.577Z,3.15
2023-06-15T15:24:50.148Z,2.90
2023-06-15T15:27:17.742Z,2.70
2023-06-15T15:29:45.339Z,4.18
2023-06-15T15:32:12.909Z,3.28
2023-06-15T15:34:40.676Z,3.45
2023-06-15T15:37:08.263Z,5.75
2023-06-15T15:39:35.866Z,3.50
2023-06-15T15:42:03.522Z,2.72
2023-06-15T15:44:31.111Z,2.80
2023-06-15T15:46:58.760Z,2.88
2023-06-15T15:49:26.409Z,2.80
2023-06-15T15:51:54.010Z,2.88
2023-06-15T15:54:21.619Z,2.95
2023-06-15T15:56:49.781Z,3.28
2023-06-15T15:59:22.507Z,2.80
2023-06-15T16:01:50.484Z,2.75
2023-06-15T16:04:18.117Z,2.83
2023-06-15T16:06:45.806Z,2.70
2023-06-15T16:09:13.412Z,2.78
2023-06-15T16:11:41.530Z,2.70
2023-06-15T16:14:09.138Z,2.90
2023-06-15T16:16:36.884Z,3.28
2023-06-15T16:19:04.566Z,2.72
2023-06-15T16:21:32.261Z,3.08
2023-06-15T16:23:59.886Z,2.78
2023-06-15T16:26:27.577Z,2.75
2023-06-15T16:28:55.266Z,2.60
2023-06-15T16:31:22.836Z,2.97
2023-06-15T16:33:50.668Z,2.67
2023-06-15T16:36:18.387Z,2.80
2023-06-15T16:38:46.018Z,3.08
2023-06-15T16:41:13.651Z,6.60
2023-06-15T16:43:42.665Z,3.80
2023-06-15T16:46:10.702Z,3.88
2023-06-15T16:48:38.395Z,3.58
2023-06-15T16:51:05.999Z,3.03
2023-06-15T16:53:33.604Z,3.17
2023-06-15T16:56:01.207Z,3.20
2023-06-15T16:58:28.765Z,3.15
2023-06-15T17:00:56.580Z,3.53
2023-06-15T17:03:24.277Z,3.10
2023-06-15T17:05:52.132Z,3.25
2023-06-15T17:08:19.703Z,2.80
2023-06-15T17:10:47.510Z,3.10
2023-06-15T17:13:15.198Z,2.90
2023-06-15T17:15:42.958Z,3.08
2023-06-15T17:18:10.795Z,3.00
2023-06-15T17:20:38.575Z,3.10
2023-06-15T17:23:07.422Z,3.08
2023-06-15T17:25:35.080Z,3.10
2023-06-15T17:28:02.793Z,2.78
2023-06-15T17:30:30.595Z,3.53
2023-06-15T17:32:58.312Z,2.80
2023-06-15T17:35:25.997Z,3.20
2023-06-15T17:37:53.586Z,5.60
2023-06-15T17:40:21.443Z,3.03
2023-06-15T17:42:52.160Z,2.83
2023-06-15T17:45:19.871Z,3.30
2023-06-15T17:47:49.129Z,2.90
2023-06-15T17:50:17.167Z,2.97
2023-06-15T17:52:45.059Z,3.40
2023-06-15T17:55:12.658Z,3.17
2023-06-15T17:57:40.564Z,2.88
2023-06-15T18:00:08.866Z,3.00
2023-06-15T18:02:41.713Z,2.78
2023-06-15T18:05:11.846Z,3.30
2023-06-15T18:07:40.500Z,4.70
2023-06-15T18:10:08.751Z,3.20
2023-06-15T18:12:36.542Z,3.05
2023-06-15T18:15:04.692Z,2.83
2023-06-15T18:17:32.348Z,2.95
2023-06-15T18:20:00.062Z,2.95
2023-06-15T18:22:27.733Z,3.20
2023-06-15T18:24:55.360Z,3.67
2023-06-15T18:27:23.098Z,3.08
2023-06-15T18:29:51.947Z,2.83
2023-06-15T18:32:19.775Z,3.20
2023-06-15T18:34:50.948Z,3.33
2023-06-15T18:37:18.996Z,2.72
2023-06-15T18:39:47.379Z,3.00
2023-06-15T18:42:15.872Z,3.10
2023-06-15T18:44:43.853Z,3.13
2023-06-15T18:47:17.532Z,3.50
2023-06-15T18:49:51.020Z,3.55
2023-06-15T18:52:19.203Z,3.38
2023-06-15T18:54:47.489Z,3.20
2023-06-15T18:57:18.126Z,3.25
2023-06-15T18:59:46.250Z,3.05
2023-06-15T19:02:17.308Z,3.13
2023-06-15T19:04:45.256Z,3.35
2023-06-15T19:07:13.259Z,3.17
2023-06-15T19:09:40.982Z,3.30
2023-06-15T19:12:08.873Z,3.33
2023-06-15T19:14:39.368Z,3.25
2023-06-15T19:17:07.977Z,3.28
2023-06-15T19:19:35.974Z,3.05
2023-06-15T19:22:04.594Z,3.40
2023-06-15T19:24:32.547Z,3.35
2023-06-15T19:27:00.533Z,3.40
2023-06-15T19:29:28.179Z,3.55
2023-06-15T19:31:56.300Z,3.50
2023-06-15T19:34:24.162Z,3.28
2023-06-15T19:36:53.332Z,3.92
2023-06-15T19:39:23.139Z,3.38
2023-06-15T19:41:53.985Z,3.60
2023-06-15T19:44:21.584Z,3.70
2023-06-15T19:46:49.616Z,3.70
2023-06-15T19:49:17.454Z,3.55
2023-06-15T19:51:45.073Z,3.42
2023-06-15T19:54:12.756Z,3.80
2023-06-15T19:56:41.991Z,4.20
2023-06-15T19:59:09.722Z,3.67
2023-06-15T20:01:37.409Z,4.38
2023-06-15T20:04:05.294Z,3.75
2023-06-15T20:06:32.985Z,4.32
2023-06-15T20:09:00.577Z,3.92
2023-06-15T20:11:28.150Z,3.70
2023-06-15T20:13:55.805Z,3.55
2023-06-15T20:16:23.566Z,3.88
2023-06-15T20:18:52.248Z,3.92
2023-06-15T20:21:21.762Z,3.83
2023-06-15T20:23:49.606Z,4.50
2023-06-15T20:26:17.816Z,4.20
2023-06-15T20:28:45.686Z,4.65
2023-06-15T20:31:15.327Z,4.90
2023-06-15T20:33:45.229Z,4.60
2023-06-15T20:36:14.100Z,4.00
2023-06-15T20:38:42.024Z,4.07
2023-06-15T20:41:09.660Z,3.60
2023-06-15T20:43:37.319Z,3.63
2023-06-15T20:46:04.989Z,3.42
2023-06-15T20:48:33.663Z,3.45
2023-06-15T20:51:02.385Z,3.70
2023-06-15T20:53:29.971Z,3.95
2023-06-15T20:55:57.755Z,3.38
2023-06-15T20:58:25.488Z,3.90
2023-06-15T21:00:53.813Z,3.70
2023-06-15T21:03:22.667Z,4.03
2023-06-15T21:05:50.534Z,3.40
2023-06-15T21:08:18.106Z,3.90
2023-06-15T21:10:46.043Z,3.92
2023-06-15T21:13:13.640Z,3.75
2023-06-15T21:15:41.348Z,3.47
2023-06-15T21:18:08.972Z,3.92
2023-06-15T21:20:38.401Z,3.95
2023-06-15T21:23:06.200Z,3.80
2023-06-15T21:25:33.814Z,4.15
2023-06-15T21:28:01.404Z,3.72
2023-06-15T21:30:29.496Z,3.70
2023-06-15T21:32:57.174Z,3.88
2023-06-15T21:35:26.127Z,3.60
2023-06-15T21:37:53.760Z,4.50
2023-06-15T21:40:22.252Z,4.22
2023-06-15T21:42:49.921Z,3.60
2023-06-15T21:45:17.576Z,3.60
2023-06-15T21:47:47.067Z,3.50
2023-06-15T21:50:15.418Z,3.72
2023-06-15T21:52:47.370Z,3.67
2023-06-15T21:55:17.785Z,3.70
2023-06-15T21:57:45.622Z,3.35
2023-06-15T22:00:13.702Z,3.65
2023-06-15T22:02:41.654Z,4.05
2023-06-15T22:05:09.844Z,3.53
2023-06-15T22:07:37.704Z,4.20
2023-06-15T22:10:06.463Z,3.15
2023-06-15T22:12:35.246Z,3.72
2023-06-15T22:15:04.674Z,3.47
2023-06-15T22:17:36.816Z,4.13
2023-06-15T22:20:09.107Z,3.70
2023-06-15T22:22:36.860Z,3.45
2023-06-15T22:25:04.853Z,3.65
2023-06-15T22:27:32.581Z,3.53
2023-06-15T22:30:00.239Z,3.80
2023-06-15T22:32:27.865Z,3.47
2023-06-15T22:34:55.532Z,3.85
2023-06-15T22:37:24.174Z,3.70
2023-06-15T22:39:51.829Z,3.67
2023-06-15T22:42:19.529Z,3.83
2023-06-15T22:44:47.952Z,3.80
2023-06-15T22:47:18.713Z,3.83
2023-06-15T22:49:46.502Z,3.72
2023-06-15T22:52:15.461Z,3.70
2023-06-15T22:54:44.086Z,3.75
2023-06-15T22:57:12.467Z,3.63
2023-06-15T22:59:40.575Z,3.80
2023-06-15T23:02:08.182Z,3.53
2023-06-15T23:04:35.903Z,3.90
2023-06-15T23:07:06.371Z,3.47
2023-06-15T23:09:36.477Z,3.67
2023-06-15T23:12:04.609Z,3.70
2023-06-15T23:14:32.874Z,3.63
2023-06-15T23:17:04.042Z,3.85
2023-06-15T23:19:32.326Z,3.85
2023-06-15T23:22:00.336Z,3.50
2023-06-15T23:24:28.556Z,3.63
2023-06-15T23:26:56.876Z,3.30
2023-06-15T23:29:28.481Z,3.28
2023-06-15T23:31:56.062Z,3.33
2023-06-15T23:34:23.674Z,3.20
2023-06-15T23:36:51.324Z,3.22
2023-06-15T23:39:19.918Z,3.65
2023-06-15T23:41:47.543Z,3.60
2023-06-15T23:44:15.150Z,3.95
2023-06-15T23:46:42.823Z,3.20
2023-06-15T23:49:10.457Z,3.78
2023-06-15T23:51:38.069Z,3.53
2023-06-15T23:54:05.678Z,4.15
2023-06-15T23:56:35.644Z,3.83
2023-06-15T23:59:03.637Z,3.83
